sensor_id;sensor_type;location;lat;lon;timestamp;pressure;altitude;pressure_sealevel;temperature;humidity
54822;BME280;41299;43.546;16.426;2022-10-31T00:01:13;102177.72;;;14.53;100.00
54822;BME280;41299;43.546;16.426;2022-10-31T00:03:39;102190.69;;;14.51;100.00
54822;BME280;41299;43.546;16.426;2022-10-31T00:06:04;102181.13;;;14.49;100.00
54822;BME280;41299;43.546;16.426;2022-10-31T00:08:29;102177.66;;;14.46;100.00
54822;BME280;41299;43.546;16.426;2022-10-31T00:10:55;102184.59;;;14.48;100.00
54822;BME280;41299;43.546;16.426;2022-10-31T00:13:20;102181.19;;;14.52;100.00
54822;BME280;41299;43.546;16.426;2022-10-31T00:15:45;102188.09;;;14.51;100.00
54822;BME280;41299;43.546;16.426;2022-10-31T00:18:10;102184.59;;;14.48;100.00
54822;BME280;41299;43.546;16.426;2022-10-31T00:20:36;102186.25;;;14.42;100.00
54822;BME280;41299;43.546;16.426;2022-10-31T00:23:02;102187.91;;;14.36;100.00
54822;BME280;41299;43.546;16.426;2022-10-31T00:25:28;102196.53;;;14.33;100.00
54822;BME280;41299;43.546;16.426;2022-10-31T00:27:54;102193.00;;;14.28;100.00
54822;BME280;41299;43.546;16.426;2022-10-31T00:30:19;102190.38;;;14.26;100.00
54822;BME280;41299;43.546;16.426;2022-10-31T00:32:44;102191.22;;;14.27;100.00
54822;BME280;41299;43.546;16.426;2022-10-31T00:35:10;102183.34;;;14.17;100.00
54822;BME280;41299;43.546;16.426;2022-10-31T00:37:35;102189.41;;;14.19;100.00
54822;BME280;41299;43.546;16.426;2022-10-31T00:40:00;102187.81;;;14.28;100.00
54822;BME280;41299;43.546;16.426;2022-10-31T00:42:25;102186.06;;;14.28;100.00
54822;BME280;41299;43.546;16.426;2022-10-31T00:44:51;102181.03;;;14.39;100.00
54822;BME280;41299;43.546;16.426;2022-10-31T00:47:16;102183.47;;;14.28;100.00
54822;BME280;41299;43.546;16.426;2022-10-31T00:49:41;102186.03;;;14.27;100.00
54822;BME280;41299;43.546;16.426;2022-10-31T00:52:06;102186.06;;;14.28;100.00
54822;BME280;41299;43.546;16.426;2022-10-31T00:54:32;102179.88;;;14.18;100.00
54822;BME280;41299;43.546;16.426;2022-10-31T00:56:57;102174.66;;;14.17;100.00
54822;BME280;41299;43.546;16.426;2022-10-31T00:59:23;102181.50;;;14.12;100.00
54822;BME280;41299;43.546;16.426;2022-10-31T01:01:48;102178.09;;;14.13;100.00
54822;BME280;41299;43.546;16.426;2022-10-31T01:04:13;102183.16;;;14.06;100.00
54822;BME280;41299;43.546;16.426;2022-10-31T01:06:39;102185.78;;;14.08;100.00
54822;BME280;41299;43.546;16.426;2022-10-31T01:09:04;102190.13;;;14.09;100.00
54822;BME280;41299;43.546;16.426;2022-10-31T01:11:29;102182.38;;;14.11;100.00
54822;BME280;41299;43.546;16.426;2022-10-31T01:13:55;102185.00;;;14.12;100.00
54822;BME280;41299;43.546;16.426;2022-10-31T01:16:22;102181.38;;;14.01;100.00
54822;BME280;41299;43.546;16.426;2022-10-31T01:18:47;102179.63;;;14.00;100.00
54822;BME280;41299;43.546;16.426;2022-10-31T01:21:20;102183.09;;;13.99;100.00
54822;BME280;41299;43.546;16.426;2022-10-31T01:23:46;102183.81;;;13.91;100.00
54822;BME280;41299;43.546;16.426;2022-10-31T01:26:17;102189.88;;;13.90;100.00
54822;BME280;41299;43.546;16.426;2022-10-31T01:28:46;102182.06;;;13.87;100.00
54822;BME280;41299;43.546;16.426;2022-10-31T01:31:12;102179.47;;;13.89;100.00
54822;BME280;41299;43.546;16.426;2022-10-31T01:33:38;102176.94;;;13.92;100.00
54822;BME280;41299;43.546;16.426;2022-10-31T01:38:37;102175.19;;;13.92;100.00
54822;BME280;41299;43.546;16.426;2022-10-31T01:41:03;102181.19;;;13.88;100.00
54822;BME280;41299;43.546;16.426;2022-10-31T01:46:09;102169.88;;;13.83;100.00
54822;BME280;41299;43.546;16.426;2022-10-31T01:48:34;102165.56;;;13.84;100.00
54822;BME280;41299;43.546;16.426;2022-10-31T01:50:59;102163.78;;;13.79;100.00
54822;BME280;41299;43.546;16.426;2022-10-31T01:53:25;102162.13;;;13.85;100.00
54822;BME280;41299;43.546;16.426;2022-10-31T01:55:50;102164.72;;;13.86;100.00
54822;BME280;41299;43.546;16.426;2022-10-31T01:58:18;102158.63;;;13.83;100.00
54822;BME280;41299;43.546;16.426;2022-10-31T02:00:45;102159.50;;;13.83;100.00
54822;BME280;41299;43.546;16.426;2022-10-31T02:03:12;102162.97;;;13.82;100.00
54822;BME280;41299;43.546;16.426;2022-10-31T02:05:38;102154.25;;;13.77;100.00
54822;BME280;41299;43.546;16.426;2022-10-31T02:10:35;102154.16;;;13.71;100.00
54822;BME280;41299;43.546;16.426;2022-10-31T02:13:01;102163.59;;;13.67;100.00
54822;BME280;41299;43.546;16.426;2022-10-31T02:15:28;102160.09;;;13.65;100.00
54822;BME280;41299;43.546;16.426;2022-10-31T02:17:53;102162.69;;;13.65;100.00
54822;BME280;41299;43.546;16.426;2022-10-31T02:20:19;102155.66;;;13.58;100.00
54822;BME280;41299;43.546;16.426;2022-10-31T02:30:28;102153.00;;;13.55;100.00
54822;BME280;41299;43.546;16.426;2022-10-31T02:35:35;102150.28;;;13.47;100.00
54822;BME280;41299;43.546;16.426;2022-10-31T02:43:20;102164.13;;;13.47;100.00
54822;BME280;41299;43.546;16.426;2022-10-31T02:48:15;102156.22;;;13.41;100.00
54822;BME280;41299;43.546;16.426;2022-10-31T02:50:44;102159.84;;;13.48;100.00
54822;BME280;41299;43.546;16.426;2022-10-31T02:53:15;102157.16;;;13.45;100.00
54822;BME280;41299;43.546;16.426;2022-10-31T02:55:46;102162.34;;;13.45;100.00
54822;BME280;41299;43.546;16.426;2022-10-31T02:58:13;102157.97;;;13.42;100.00
54822;BME280;41299;43.546;16.426;2022-10-31T03:05:54;102163.13;;;13.39;100.00
54822;BME280;41299;43.546;16.426;2022-10-31T03:08:27;102154.47;;;13.38;100.00
54822;BME280;41299;43.546;16.426;2022-10-31T03:10:55;102154.28;;;13.29;100.00
54822;BME280;41299;43.546;16.426;2022-10-31T03:13:31;102155.22;;;13.31;100.00
54822;BME280;41299;43.546;16.426;2022-10-31T03:18:34;102155.06;;;13.23;100.00
54822;BME280;41299;43.546;16.426;2022-10-31T03:21:07;102160.31;;;13.28;100.00
54822;BME280;41299;43.546;16.426;2022-10-31T03:23:35;102168.09;;;13.28;100.00
54822;BME280;41299;43.546;16.426;2022-10-31T03:26:02;102166.44;;;13.30;100.00
54822;BME280;41299;43.546;16.426;2022-10-31T03:28:31;102169.84;;;13.29;100.00
54822;BME280;41299;43.546;16.426;2022-10-31T03:30:59;102166.31;;;13.25;100.00
54822;BME280;41299;43.546;16.426;2022-10-31T03:33:27;102168.91;;;13.24;100.00
54822;BME280;41299;43.546;16.426;2022-10-31T03:35:54;102173.97;;;13.18;100.00
54822;BME280;41299;43.546;16.426;2022-10-31T03:38:20;102167.94;;;13.17;100.00
54822;BME280;41299;43.546;16.426;2022-10-31T03:40:47;102174.78;;;13.14;100.00
54822;BME280;41299;43.546;16.426;2022-10-31T03:43:15;102175.66;;;13.16;100.00
54822;BME280;41299;43.546;16.426;2022-10-31T03:45:43;102175.72;;;13.19;100.00
54822;BME280;41299;43.546;16.426;2022-10-31T03:48:10;102174.81;;;13.17;100.00
54822;BME280;41299;43.546;16.426;2022-10-31T03:50:40;102171.41;;;13.19;100.00
54822;BME280;41299;43.546;16.426;2022-10-31T03:53:14;102177.44;;;13.18;100.00
54822;BME280;41299;43.546;16.426;2022-10-31T03:58:07;102175.66;;;13.16;100.00
54822;BME280;41299;43.546;16.426;2022-10-31T04:00:33;102169.59;;;13.14;100.00
54822;BME280;41299;43.546;16.426;2022-10-31T04:05:25;102166.94;;;13.10;100.00
54822;BME280;41299;43.546;16.426;2022-10-31T04:07:51;102159.19;;;13.12;100.00
54822;BME280;41299;43.546;16.426;2022-10-31T04:10:18;102165.19;;;13.09;100.00
54822;BME280;41299;43.546;16.426;2022-10-31T04:12:45;102166.13;;;13.13;100.00
54822;BME280;41299;43.546;16.426;2022-10-31T04:15:13;102166.00;;;13.07;100.00
54822;BME280;41299;43.546;16.426;2022-10-31T04:17:39;102167.72;;;13.06;100.00
54822;BME280;41299;43.546;16.426;2022-10-31T04:20:05;102163.34;;;13.02;100.00
54822;BME280;41299;43.546;16.426;2022-10-31T04:22:31;102162.53;;;13.05;100.00
54822;BME280;41299;43.546;16.426;2022-10-31T04:24:56;102166.81;;;13.04;100.00
54822;BME280;41299;43.546;16.426;2022-10-31T04:27:21;102158.16;;;13.04;100.00
54822;BME280;41299;43.546;16.426;2022-10-31T04:29:47;102165.13;;;13.06;100.00
54822;BME280;41299;43.546;16.426;2022-10-31T04:32:12;102158.09;;;12.99;100.00
54822;BME280;41299;43.546;16.426;2022-10-31T04:34:37;102161.59;;;13.01;100.00
54822;BME280;41299;43.546;16.426;2022-10-31T04:37:02;102160.69;;;12.99;100.00
54822;BME280;41299;43.546;16.426;2022-10-31T04:39:28;102162.53;;;13.05;100.00
54822;BME280;41299;43.546;16.426;2022-10-31T04:41:53;102165.09;;;13.03;100.00
54822;BME280;41299;43.546;16.426;2022-10-31T04:44:18;102166.81;;;13.04;100.00
54822;BME280;41299;43.546;16.426;2022-10-31T04:46:43;102167.59;;;13.00;100.00
54822;BME280;41299;43.546;16.426;2022-10-31T04:49:09;102159.84;;;13.00;100.00
54822;BME280;41299;43.546;16.426;2022-10-31T04:51:34;102153.81;;;12.99;100.00
54822;BME280;41299;43.546;16.426;2022-10-31T04:53:59;102152.91;;;12.99;100.00
54822;BME280;41299;43.546;16.426;2022-10-31T04:56:25;102151.25;;;13.01;100.00
54822;BME280;41299;43.546;16.426;2022-10-31T04:58:50;102150.31;;;12.99;100.00
54822;BME280;41299;43.546;16.426;2022-10-31T05:01:16;102141.72;;;13.00;100.00
54822;BME280;41299;43.546;16.426;2022-10-31T05:03:41;102146.13;;;13.06;100.00
54822;BME280;41299;43.546;16.426;2022-10-31T05:06:06;102146.97;;;13.03;100.00
54822;BME280;41299;43.546;16.426;2022-10-31T05:08:32;102145.22;;;13.04;100.00
54822;BME280;41299;43.546;16.426;2022-10-31T05:11:00;102144.38;;;13.03;100.00
54822;BME280;41299;43.546;16.426;2022-10-31T05:13:26;102149.47;;;13.00;100.00
54822;BME280;41299;43.546;16.426;2022-10-31T05:15:52;102149.38;;;12.94;100.00
54822;BME280;41299;43.546;16.426;2022-10-31T05:18:17;102151.78;;;12.83;100.00
54822;BME280;41299;43.546;16.426;2022-10-31T05:20:42;102153.59;;;12.87;100.00
54822;BME280;41299;43.546;16.426;2022-10-31T05:23:08;102154.44;;;12.88;100.00
54822;BME280;41299;43.546;16.426;2022-10-31T05:25:33;102158.03;;;12.94;100.00
54822;BME280;41299;43.546;16.426;2022-10-31T05:28:07;102164.91;;;12.94;100.00
54822;BME280;41299;43.546;16.426;2022-10-31T05:30:35;102167.47;;;12.92;100.00
54822;BME280;41299;43.546;16.426;2022-10-31T05:33:01;102168.22;;;12.87;100.00
54822;BME280;41299;43.546;16.426;2022-10-31T05:35:30;102169.13;;;12.87;100.00
54822;BME280;41299;43.546;16.426;2022-10-31T05:37:56;102176.84;;;12.85;100.00
54822;BME280;41299;43.546;16.426;2022-10-31T05:40:22;102177.78;;;12.89;100.00
54822;BME280;41299;43.546;16.426;2022-10-31T05:42:50;102181.09;;;12.82;100.00
54822;BME280;41299;43.546;16.426;2022-10-31T05:45:16;102184.59;;;12.85;100.00
54822;BME280;41299;43.546;16.426;2022-10-31T05:47:42;102184.66;;;12.89;100.00
54822;BME280;41299;43.546;16.426;2022-10-31T05:50:09;102189.09;;;12.94;100.00
54822;BME280;41299;43.546;16.426;2022-10-31T05:52:34;102190.03;;;12.98;100.00
54822;BME280;41299;43.546;16.426;2022-10-31T05:55:00;102194.44;;;13.04;100.00
54822;BME280;41299;43.546;16.426;2022-10-31T05:57:25;102187.66;;;13.10;100.00
54822;BME280;41299;43.546;16.426;2022-10-31T05:59:50;102192.06;;;13.15;100.00
54822;BME280;41299;43.546;16.426;2022-10-31T06:02:19;102191.16;;;13.14;100.00
54822;BME280;41299;43.546;16.426;2022-10-31T06:04:44;102194.56;;;13.11;100.00
54822;BME280;41299;43.546;16.426;2022-10-31T06:07:10;102198.94;;;13.14;100.00
54822;BME280;41299;43.546;16.426;2022-10-31T06:09:35;102196.28;;;13.09;100.00
54822;BME280;41299;43.546;16.426;2022-10-31T06:12:00;102206.75;;;13.16;100.00
54822;BME280;41299;43.546;16.426;2022-10-31T06:14:25;102214.44;;;13.11;100.00
54822;BME280;41299;43.546;16.426;2022-10-31T06:16:51;102215.41;;;13.18;100.00
54822;BME280;41299;43.546;16.426;2022-10-31T06:19:16;102218.06;;;13.21;100.00
54822;BME280;41299;43.546;16.426;2022-10-31T06:21:41;102221.75;;;13.35;100.00
54822;BME280;41299;43.546;16.426;2022-10-31T06:24:07;102219.44;;;13.48;100.00
54822;BME280;41299;43.546;16.426;2022-10-31T06:26:32;102226.47;;;13.55;100.00
54822;BME280;41299;43.546;16.426;2022-10-31T06:28:57;102228.31;;;13.62;100.00
54822;BME280;41299;43.546;16.426;2022-10-31T06:31:22;102232.66;;;13.63;100.00
54822;BME280;41299;43.546;16.426;2022-10-31T06:33:48;102230.97;;;13.65;100.00
54822;BME280;41299;43.546;16.426;2022-10-31T06:36:13;102239.63;;;13.68;100.00
54822;BME280;41299;43.546;16.426;2022-10-31T06:38:47;102232.75;;;13.70;100.00
54822;BME280;41299;43.546;16.426;2022-10-31T06:41:15;102238.88;;;13.75;100.00
54822;BME280;41299;43.546;16.426;2022-10-31T06:43:41;102243.25;;;13.76;100.00
54822;BME280;41299;43.546;16.426;2022-10-31T06:46:07;102247.81;;;13.91;100.00
54822;BME280;41299;43.546;16.426;2022-10-31T06:48:35;102255.72;;;14.00;100.00
54822;BME280;41299;43.546;16.426;2022-10-31T06:51:00;102253.31;;;14.11;100.00
54822;BME280;41299;43.546;16.426;2022-10-31T06:53:29;102259.44;;;14.18;100.00
54822;BME280;41299;43.546;16.426;2022-10-31T06:55:57;102262.97;;;14.23;100.00
54822;BME280;41299;43.546;16.426;2022-10-31T06:58:23;102259.59;;;14.29;100.00
54822;BME280;41299;43.546;16.426;2022-10-31T07:00:48;102262.22;;;14.32;100.00
54822;BME280;41299;43.546;16.426;2022-10-31T07:03:13;102260.56;;;14.34;100.00
54822;BME280;41299;43.546;16.426;2022-10-31T07:05:40;102259.75;;;14.40;100.00
54822;BME280;41299;43.546;16.426;2022-10-31T07:08:08;102260.66;;;14.43;100.00
54822;BME280;41299;43.546;16.426;2022-10-31T07:10:34;102257.31;;;14.52;100.00
54822;BME280;41299;43.546;16.426;2022-10-31T07:13:01;102253.97;;;14.61;100.00
54822;BME280;41299;43.546;16.426;2022-10-31T07:15:27;102259.28;;;14.70;100.00
54822;BME280;41299;43.546;16.426;2022-10-31T07:17:52;102264.59;;;14.77;100.00
54822;BME280;41299;43.546;16.426;2022-10-31T07:20:18;102250.81;;;14.84;100.00
54822;BME280;41299;43.546;16.426;2022-10-31T07:22:43;102250.00;;;14.88;100.00
54822;BME280;41299;43.546;16.426;2022-10-31T07:25:09;102245.75;;;14.93;100.00
54822;BME280;41299;43.546;16.426;2022-10-31T07:27:38;102247.59;;;15.04;100.00
54822;BME280;41299;43.546;16.426;2022-10-31T07:30:03;102252.06;;;15.14;100.00
54822;BME280;41299;43.546;16.426;2022-10-31T07:32:36;102253.00;;;15.24;100.00
54822;BME280;41299;43.546;16.426;2022-10-31T07:35:02;102256.56;;;15.34;100.00
54822;BME280;41299;43.546;16.426;2022-10-31T07:37:27;102258.38;;;15.41;100.00
54822;BME280;41299;43.546;16.426;2022-10-31T07:39:52;102254.09;;;15.46;100.00
54822;BME280;41299;43.546;16.426;2022-10-31T07:42:18;102256.75;;;15.54;100.00
54822;BME280;41299;43.546;16.426;2022-10-31T07:44:43;102253.38;;;15.60;100.00
54822;BME280;41299;43.546;16.426;2022-10-31T07:47:08;102249.06;;;15.66;100.00
54822;BME280;41299;43.546;16.426;2022-10-31T07:49:34;102248.25;;;15.72;100.00
54822;BME280;41299;43.546;16.426;2022-10-31T07:51:59;102246.56;;;15.77;100.00
54822;BME280;41299;43.546;16.426;2022-10-31T07:54:24;102250.94;;;15.85;100.00
54822;BME280;41299;43.546;16.426;2022-10-31T07:56:49;102251.84;;;15.88;100.00
54822;BME280;41299;43.546;16.426;2022-10-31T07:59:15;102251.88;;;15.91;100.00
54822;BME280;41299;43.546;16.426;2022-10-31T08:01:40;102256.28;;;15.94;100.00
54822;BME280;41299;43.546;16.426;2022-10-31T08:04:05;102260.63;;;15.97;100.00
54822;BME280;41299;43.546;16.426;2022-10-31T08:06:31;102266.72;;;16.00;100.00
54822;BME280;41299;43.546;16.426;2022-10-31T08:08:56;102261.53;;;16.05;100.00
54822;BME280;41299;43.546;16.426;2022-10-31T08:11:21;102257.22;;;16.09;100.00
54822;BME280;41299;43.546;16.426;2022-10-31T08:13:46;102262.47;;;16.15;100.00
54822;BME280;41299;43.546;16.426;2022-10-31T08:16:12;102259.06;;;16.22;100.00
54822;BME280;41299;43.546;16.426;2022-10-31T08:18:37;102257.38;;;16.27;100.00
54822;BME280;41299;43.546;16.426;2022-10-31T08:21:02;102250.44;;;16.32;100.00
54822;BME280;41299;43.546;16.426;2022-10-31T08:23:28;102249.63;;;16.40;100.00
54822;BME280;41299;43.546;16.426;2022-10-31T08:25:53;102247.03;;;16.44;100.00
54822;BME280;41299;43.546;16.426;2022-10-31T08:28:18;102240.13;;;16.51;100.00
54822;BME280;41299;43.546;16.426;2022-10-31T08:30:43;102241.91;;;16.58;100.00
54822;BME280;41299;43.546;16.426;2022-10-31T08:33:11;102237.59;;;16.65;100.00
54822;BME280;41299;43.546;16.426;2022-10-31T08:35:37;102239.38;;;16.74;100.00
54822;BME280;41299;43.546;16.426;2022-10-31T08:38:02;102228.09;;;16.81;100.00
54822;BME280;41299;43.546;16.426;2022-10-31T08:40:28;102229.88;;;16.92;100.00
54822;BME280;41299;43.546;16.426;2022-10-31T08:42:57;102229.88;;;17.01;100.00
54822;BME280;41299;43.546;16.426;2022-10-31T08:45:23;102231.66;;;17.11;100.00
54822;BME280;41299;43.546;16.426;2022-10-31T08:47:48;102234.31;;;17.21;100.00
54822;BME280;41299;43.546;16.426;2022-10-31T08:50:13;102235.16;;;17.29;100.00
54822;BME280;41299;43.546;16.426;2022-10-31T08:52:39;102223.00;;;17.34;100.00
54822;BME280;41299;43.546;16.426;2022-10-31T08:55:04;102220.41;;;17.42;100.00
54822;BME280;41299;43.546;16.426;2022-10-31T08:57:30;102221.28;;;17.49;100.00
54822;BME280;41299;43.546;16.426;2022-10-31T08:59:55;102227.38;;;17.52;100.00
54822;BME280;41299;43.546;16.426;2022-10-31T09:02:20;102228.25;;;17.56;100.00
54822;BME280;41299;43.546;16.426;2022-10-31T09:04:45;102230.88;;;17.59;100.00
54822;BME280;41299;43.546;16.426;2022-10-31T09:07:11;102232.59;;;17.63;100.00
54822;BME280;41299;43.546;16.426;2022-10-31T09:09:36;102230.84;;;17.67;100.00
54822;BME280;41299;43.546;16.426;2022-10-31T09:12:01;102232.59;;;17.71;100.00
54822;BME280;41299;43.546;16.426;2022-10-31T09:14:27;102236.06;;;17.76;100.00
54822;BME280;41299;43.546;16.426;2022-10-31T09:16:55;102231.72;;;17.83;100.00
54822;BME280;41299;43.546;16.426;2022-10-31T09:19:20;102235.19;;;17.91;100.00
54822;BME280;41299;43.546;16.426;2022-10-31T09:21:45;102235.16;;;17.99;100.00
54822;BME280;41299;43.546;16.426;2022-10-31T09:24:10;102230.84;;;18.08;100.00
54822;BME280;41299;43.546;16.426;2022-10-31T09:26:36;102231.69;;;18.14;100.00
54822;BME280;41299;43.546;16.426;2022-10-31T09:29:01;102231.69;;;18.24;100.00
54822;BME280;41299;43.546;16.426;2022-10-31T09:31:27;102231.66;;;18.30;100.00
54822;BME280;41299;43.546;16.426;2022-10-31T09:33:52;102222.94;;;18.40;100.00
54822;BME280;41299;43.546;16.426;2022-10-31T09:36:18;102228.09;;;18.53;100.00
54822;BME280;41299;43.546;16.426;2022-10-31T09:38:43;102222.84;;;18.62;100.00
54822;BME280;41299;43.546;16.426;2022-10-31T09:46:07;102217.44;;;18.90;100.00
54822;BME280;41299;43.546;16.426;2022-10-31T09:51:10;102220.00;;;19.09;100.00
54822;BME280;41299;43.546;16.426;2022-10-31T09:56:19;102216.41;;;19.24;100.00
54822;BME280;41299;43.546;16.426;2022-10-31T09:58:54;102217.25;;;19.31;100.00
54822;BME280;41299;43.546;16.426;2022-10-31T10:03:46;102206.69;;;19.40;100.00
54822;BME280;41299;43.546;16.426;2022-10-31T10:06:14;102207.47;;;19.50;100.00
54822;BME280;41299;43.546;16.426;2022-10-31T10:08:41;102203.06;;;19.55;100.00
54822;BME280;41299;43.546;16.426;2022-10-31T10:19:10;102197.63;;;19.78;100.00
54822;BME280;41299;43.546;16.426;2022-10-31T10:26:52;102188.75;;;19.93;100.00
54822;BME280;41299;43.546;16.426;2022-10-31T10:31:51;102189.59;;;20.00;100.00
54822;BME280;41299;43.546;16.426;2022-10-31T10:34:27;102185.19;;;20.05;100.00
54822;BME280;41299;43.546;16.426;2022-10-31T10:36:58;102185.13;;;20.09;100.00
54822;BME280;41299;43.546;16.426;2022-10-31T10:39:27;102188.56;;;20.12;100.00
54822;BME280;41299;43.546;16.426;2022-10-31T10:41:55;102179.81;;;20.18;100.00
54822;BME280;41299;43.546;16.426;2022-10-31T10:44:43;102179.72;;;20.24;100.00
54822;BME280;41299;43.546;16.426;2022-10-31T10:47:28;102174.41;;;20.30;100.00
54822;BME280;41299;43.546;16.426;2022-10-31T10:50:15;102171.69;;;20.38;100.00
54822;BME280;41299;43.546;16.426;2022-10-31T10:55:30;102164.56;;;20.50;100.00
54822;BME280;41299;43.546;16.426;2022-10-31T11:00:48;102170.53;;;20.61;100.00
54822;BME280;41299;43.546;16.426;2022-10-31T11:03:14;102163.47;;;20.66;100.00
54822;BME280;41299;43.546;16.426;2022-10-31T11:05:46;102164.22;;;20.73;100.00
54822;BME280;41299;43.546;16.426;2022-10-31T11:08:26;102170.25;;;20.78;100.00
54822;BME280;41299;43.546;16.426;2022-10-31T11:11:02;102163.19;;;20.83;100.00
54822;BME280;41299;43.546;16.426;2022-10-31T11:13:28;102166.63;;;20.92;100.00
54822;BME280;41299;43.546;16.426;2022-10-31T11:16:10;102155.22;;;20.94;100.00
54822;BME280;41299;43.546;16.426;2022-10-31T11:18:39;102159.47;;;21.03;100.00
54822;BME280;41299;43.546;16.426;2022-10-31T11:21:17;102155.88;;;21.07;100.00
54822;BME280;41299;43.546;16.426;2022-10-31T11:23:44;102153.22;;;21.10;100.00
54822;BME280;41299;43.546;16.426;2022-10-31T11:26:19;102154.84;;;21.18;100.00
54822;BME280;41299;43.546;16.426;2022-10-31T11:28:55;102153.91;;;21.22;100.00
54822;BME280;41299;43.546;16.426;2022-10-31T11:31:20;102145.06;;;21.27;100.00
54822;BME280;41299;43.546;16.426;2022-10-31T11:33:47;102145.78;;;21.37;100.00
54822;BME280;41299;43.546;16.426;2022-10-31T11:36:27;102143.94;;;21.43;100.00
54822;BME280;41299;43.546;16.426;2022-10-31T11:38:54;102139.41;;;21.51;96.68
54822;BME280;41299;43.546;16.426;2022-10-31T11:41:24;102141.09;;;21.55;95.74
54822;BME280;41299;43.546;16.426;2022-10-31T11:43:59;102139.25;;;21.60;92.36
54822;BME280;41299;43.546;16.426;2022-10-31T11:49:02;102132.88;;;21.75;83.91
54822;BME280;41299;43.546;16.426;2022-10-31T11:51:56;102141.53;;;21.80;78.37
54822;BME280;41299;43.546;16.426;2022-10-31T11:54:33;102131.00;;;21.82;80.51
54822;BME280;41299;43.546;16.426;2022-10-31T11:57:03;102134.41;;;21.86;78.21
54822;BME280;41299;43.546;16.426;2022-10-31T11:59:31;102133.41;;;21.91;80.95
54822;BME280;41299;43.546;16.426;2022-10-31T12:01:58;102129.88;;;21.94;80.97
54822;BME280;41299;43.546;16.426;2022-10-31T12:06:58;102115.66;;;22.04;67.69
54822;BME280;41299;43.546;16.426;2022-10-31T12:09:25;102109.44;;;22.09;61.38
54822;BME280;41299;43.546;16.426;2022-10-31T12:17:31;102104.66;;;22.28;60.54
54822;BME280;41299;43.546;16.426;2022-10-31T12:22:53;102108.03;;;22.33;64.39
54822;BME280;41299;43.546;16.426;2022-10-31T12:30:41;102098.09;;;22.46;62.79
54822;BME280;41299;43.546;16.426;2022-10-31T12:36:38;102096.25;;;22.53;56.69
54822;BME280;41299;43.546;16.426;2022-10-31T12:57:54;102076.53;;;22.71;67.07
54822;BME280;41299;43.546;16.426;2022-10-31T13:00:24;102075.63;;;22.73;64.50
54822;BME280;41299;43.546;16.426;2022-10-31T13:02:52;102075.53;;;22.77;66.75
54822;BME280;41299;43.546;16.426;2022-10-31T13:05:27;102078.16;;;22.77;68.26
54822;BME280;41299;43.546;16.426;2022-10-31T13:13:36;102075.50;;;22.78;64.96
54822;BME280;41299;43.546;16.426;2022-10-31T13:16:15;102075.50;;;22.78;71.25
54822;BME280;41299;43.546;16.426;2022-10-31T13:26:56;102074.53;;;22.81;81.63
54822;BME280;41299;43.546;16.426;2022-10-31T13:29:32;102074.56;;;22.79;84.58
54822;BME280;41299;43.546;16.426;2022-10-31T13:31:59;102070.25;;;22.77;88.87
54822;BME280;41299;43.546;16.426;2022-10-31T13:36:57;102074.84;;;22.68;94.67
54822;BME280;41299;43.546;16.426;2022-10-31T13:41:53;102075.72;;;22.67;94.27
54822;BME280;41299;43.546;16.426;2022-10-31T13:44:24;102068.72;;;22.68;96.85
54822;BME280;41299;43.546;16.426;2022-10-31T13:46:50;102067.03;;;22.65;97.61
54822;BME280;41299;43.546;16.426;2022-10-31T13:52:24;102063.63;;;22.60;99.10
54822;BME280;41299;43.546;16.426;2022-10-31T13:54:50;102064.56;;;22.59;100.00
54822;BME280;41299;43.546;16.426;2022-10-31T13:59:50;102069.97;;;22.53;100.00
54822;BME280;41299;43.546;16.426;2022-10-31T14:02:26;102071.75;;;22.51;100.00
54822;BME280;41299;43.546;16.426;2022-10-31T14:07:41;102074.47;;;22.44;100.00
54822;BME280;41299;43.546;16.426;2022-10-31T14:10:20;102072.00;;;22.38;100.00
54822;BME280;41299;43.546;16.426;2022-10-31T14:12:49;102076.41;;;22.38;100.00
54822;BME280;41299;43.546;16.426;2022-10-31T14:15:21;102071.13;;;22.39;100.00
54822;BME280;41299;43.546;16.426;2022-10-31T14:17:48;102079.88;;;22.38;100.00
54822;BME280;41299;43.546;16.426;2022-10-31T14:23:10;102073.06;;;22.29;100.00
54822;BME280;41299;43.546;16.426;2022-10-31T14:25:36;102068.88;;;22.22;100.00
54822;BME280;41299;43.546;16.426;2022-10-31T14:28:21;102076.84;;;22.17;100.00
54822;BME280;41299;43.546;16.426;2022-10-31T14:30:56;102070.03;;;22.09;100.00
54822;BME280;41299;43.546;16.426;2022-10-31T14:33:23;102074.44;;;22.06;100.00
54822;BME280;41299;43.546;16.426;2022-10-31T14:35:58;102066.69;;;22.00;100.00
54822;BME280;41299;43.546;16.426;2022-10-31T14:41:21;102070.38;;;21.91;100.00
54822;BME280;41299;43.546;16.426;2022-10-31T14:47:05;102065.41;;;21.79;100.00
54822;BME280;41299;43.546;16.426;2022-10-31T14:49:23;102063.81;;;21.69;100.00
54822;BME280;41299;43.546;16.426;2022-10-31T14:51:52;102065.63;;;21.66;100.00
54822;BME280;41299;43.546;16.426;2022-10-31T14:54:32;102060.56;;;21.56;100.00
54822;BME280;41299;43.546;16.426;2022-10-31T14:57:01;102067.78;;;21.44;100.00
54822;BME280;41299;43.546;16.426;2022-10-31T14:59:28;102065.22;;;21.41;100.00
54822;BME280;41299;43.546;16.426;2022-10-31T15:02:08;102063.50;;;21.40;100.00